Ocean Trader — CQIB8 — position and weather

sailwx.info

Track history (hours):
 
Tides and Currents Weather Stations Pressure Air Temp Water Temp Dewpoint Dewpoint Depression Visibility Wind Speed Wind Dir Waves Ship Positions

Ocean Trader

Last reported at 2018-Apr-19 19:00 UTC. Time now 2018-Apr-19 19:23 UTC.
Position N 38°51' W 010°06'.

Length 107 m; draft 8.5 m.

Type: Cargo ship. MMSI: 255805916.

Date/timePositionNaut miles runAvg speedWind from/ knotsBaromVisibWave heightAir tempDewpointWater temp
2018-Apr-19 19:00N 38°51' W 010°06'611.2
2018-Apr-19 18:29N 38°57' W 010°06'510.9
2018-Apr-19 18:00N 39°02' W 010°06'510.8
2018-Apr-19 17:30N 39°08' W 010°06'610.7
2018-Apr-19 16:56N 39°14' W 010°06'511.1
2018-Apr-19 16:29N 39°19' W 010°06'  
2018-Apr-16 10:12N 49°23' W 004°31'211.2
2018-Apr-16 10:00N 49°24' W 004°28'45 8.0
2018-Apr-16 04:20N 49°47' W 003°28'3 7.9
2018-Apr-16 03:56N 49°48' W 003°23'4 8.6
2018-Apr-16 03:30N 49°50' W 003°18'510.2
2018-Apr-16 03:00N 49°53' W 003°12'611.4
2018-Apr-16 02:30N 49°56' W 003°04'612.3
2018-Apr-16 02:00N 49°59' W 002°55'612.8
2018-Apr-16 01:30N 50°01' W 002°46'3512.2
2018-Apr-15 22:41N 50°11' W 001°54'3 9.5
2018-Apr-15 22:19N 50°11' W 001°49'3 8.9
2018-Apr-15 22:00N 50°12' W 001°45'4 8.3
2018-Apr-15 21:30N 50°13' W 001°39'4 7.4
2018-Apr-15 21:00N 50°14' W 001°33'44 9.0
2018-Apr-15 16:03N 50°28' W 000°27'113.1
2018-Apr-15 15:58N 50°28' W 000°25'613.1
2018-Apr-15 15:30N 50°29' W 000°16'713.1
2018-Apr-15 15:00N 50°31' W 000°06'713.1
2018-Apr-15 14:30N 50°33' E 000°04'612.7
2018-Apr-15 14:00N 50°35' E 000°14'612.7
2018-Apr-15 13:30N 50°36' E 000°23'612.2
2018-Apr-15 13:00N 50°38' E 000°32'611.8
2018-Apr-15 12:30N 50°41' E 000°40'611.1
2018-Apr-15 12:00N 50°44' E 000°48'510.5
2018-Apr-15 11:30N 50°47' E 000°54'510.0
2018-Apr-15 10:59N 50°50' E 001°01'8 9.8
2018-Apr-15 10:10N 50°56' E 001°10'2 9.8
2018-Apr-15 09:59N 50°57' E 001°12'610.0
2018-Apr-15 09:25N 51°00' E 001°19'410.9
2018-Apr-15 09:00N 51°03' E 001°25'612.7
2018-Apr-15 08:30N 51°07' E 001°33'713.7
2018-Apr-15 08:00N 51°12' E 001°41'713.8
2018-Apr-15 07:31N 51°17' E 001°48'713.9
2018-Apr-15 07:01N 51°23' E 001°53'713.3
2018-Apr-15 06:30N 51°29' E 001°59'612.7
2018-Apr-15 06:00N 51°34' E 002°06'612.1
2018-Apr-15 05:31N 51°38' E 002°12'611.8
2018-Apr-15 05:00N 51°42' E 002°19'611.2
2018-Apr-15 04:29N 51°47' E 002°25'4110.2
2018-Apr-15 00:29N 52°18' E 003°08'510.5
2018-Apr-15 00:00N 52°22' E 003°13'611.1
2018-Apr-14 23:29N 52°26' E 003°18'611.7
2018-Apr-14 22:59N 52°31' E 003°24'612.1
2018-Apr-14 22:30N 52°36' E 003°30'612.3
2018-Apr-14 21:59N 52°41' E 003°36'612.4
2018-Apr-14 21:29N 52°46' E 003°43'612.5
2018-Apr-14 21:00N 52°50' E 003°49'712.6
2018-Apr-14 20:28N 52°55' E 003°57'612.4
2018-Apr-14 19:59N 52°59' E 004°04'612.2
2018-Apr-14 19:30N 53°03' E 004°11'611.9
2018-Apr-14 19:00N 53°08' E 004°18'611.3
2018-Apr-14 18:29N 53°12' E 004°24'611.0
2018-Apr-14 17:59N 53°17' E 004°28'510.4
2018-Apr-14 17:29N 53°22' E 004°31'510.6
2018-Apr-14 17:00N 53°27' E 004°34'510.4
2018-Apr-14 16:30N 53°32' E 004°36'510.4
2018-Apr-14 15:59N 53°37' E 004°39'510.9
2018-Apr-14 15:29N 53°42' E 004°43'611.2
2018-Apr-14 14:59N 53°47' E 004°46'611.8
2018-Apr-14 14:30N 53°52' E 004°50'611.5
2018-Apr-14 13:59N 53°58' E 004°54'611.6
2018-Apr-14 13:29N 54°03' E 004°58'611.6
2018-Apr-14 12:59N 54°08' E 005°03'611.6
2018-Apr-14 12:30N 54°13' E 005°08'263 9.0
2018-Apr-13 07:05N 57°42' E 009°55'213.3
2018-Apr-13 06:58N 57°42' E 009°58'813.5
2018-Apr-13 06:23N 57°44' E 010°12'514.0
2018-Apr-13 06:00N 57°45' E 010°22'713.8
2018-Apr-13 05:30N 57°47' E 010°34'612.1
2018-Apr-13 05:00N 57°45' E 010°45'4 7.0
2018-Apr-13 04:30N 57°42' E 010°46'4 8.8
2018-Apr-13 04:00N 57°40' E 010°54'611.2
2018-Apr-13 03:31N 57°39' E 011°04'510.8
2018-Apr-13 03:00N 57°35' E 011°12'611.4
2018-Apr-13 02:30N 57°32' E 011°20'611.6
2018-Apr-13 02:01N 57°27' E 011°26'612.1
2018-Apr-13 01:30N 57°21' E 011°30'612.2
2018-Apr-13 01:01N 57°16' E 011°34'612.3
2018-Apr-13 00:30N 57°10' E 011°38'612.5
2018-Apr-13 00:00N 57°04' E 011°42'612.7
2018-Apr-12 23:30N 56°58' E 011°46'612.6
2018-Apr-12 23:00N 56°52' E 011°49'9810.8
2018-Apr-12 13:55N 55°17' E 011°04'512.0
2018-Apr-12 13:31N 55°12' E 011°06'610.9
2018-Apr-12 12:59N 55°08' E 010°60'611.7
2018-Apr-12 12:31N 55°03' E 010°60'510.8
2018-Apr-12 12:01N 54°58' E 010°56'611.4
2018-Apr-12 11:30N 54°53' E 010°51'611.8
2018-Apr-12 11:00N 54°47' E 010°49'611.5
2018-Apr-12 10:30N 54°42' E 010°47'611.4
2018-Apr-12 10:00N 54°38' E 010°54'611.4
2018-Apr-12 09:30N 54°36' E 011°04'611.8
2018-Apr-12 09:01N 54°36' E 011°14'612.5
2018-Apr-12 08:30N 54°33' E 011°23'612.7
2018-Apr-12 08:01N 54°30' E 011°33'612.5
2018-Apr-12 07:30N 54°27' E 011°43'7711.1
2018-Apr-12 00:32N 55°00' E 013°44'211.8
2018-Apr-12 00:21N 55°01' E 013°47'411.7
2018-Apr-12 00:00N 55°02' E 013°54'2211.5
2018-Apr-11 22:02N 55°17' E 014°23'011.7
2018-Apr-11 22:00N 55°18' E 014°23'611.5
2018-Apr-11 21:30N 55°22' E 014°30'611.3
2018-Apr-11 21:00N 55°26' E 014°36'611.4
2018-Apr-11 20:30N 55°29' E 014°45'611.5
2018-Apr-11 20:00N 55°32' E 014°54'611.5
2018-Apr-11 19:30N 55°35' E 015°02'611.5
2018-Apr-11 19:00N 55°38' E 015°11'611.7
2018-Apr-11 18:31N 55°41' E 015°20'611.8
2018-Apr-11 18:00N 55°44' E 015°29'611.9
2018-Apr-11 17:30N 55°47' E 015°38'611.8
2018-Apr-11 17:01N 55°50' E 015°47'611.9
2018-Apr-11 16:30N 55°53' E 015°57'611.8
2018-Apr-11 16:01N 55°56' E 016°06'611.8
2018-Apr-11 15:31N 55°59' E 016°15'611.7
2018-Apr-11 15:00N 56°02' E 016°24'611.7
2018-Apr-11 14:31N 56°05' E 016°33'611.7
2018-Apr-11 14:00N 56°08' E 016°41'611.3
2018-Apr-11 13:31N 56°12' E 016°48'611.4
2018-Apr-11 13:00N 56°18' E 016°51'20011.8
2018-Apr-10 20:01N 59°17' E 019°41'112.1
2018-Apr-10 19:55N 59°18' E 019°42'1512.2
2018-Apr-10 18:43N 59°30' E 019°56'312.1
2018-Apr-10 18:28N 59°33' E 019°57'611.5
2018-Apr-10 17:55N 59°39' E 019°53'512.1
2018-Apr-10 17:28N 59°43' E 019°46'612.1
2018-Apr-10 17:01N 59°48' E 019°39'611.9
2018-Apr-10 16:31N 59°52' E 019°32'611.9
2018-Apr-10 16:01N 59°57' E 019°24'612.1
2018-Apr-10 15:30N 60°01' E 019°16'612.1
2018-Apr-10 15:01N 60°06' E 019°08'612.1
2018-Apr-10 14:30N 60°11' E 019°01'612.4
2018-Apr-10 14:00N 60°17' E 019°00'1412.4
2018-Apr-10 12:55N 60°31' E 018°57'  
Track history (hours):
 
Tides and Currents Weather Stations Pressure Air Temp Water Temp Dewpoint Dewpoint Depression Visibility Wind Speed Wind Dir Waves Ship Positions

Ocean Trader

Last reported at 2018-Apr-19 19:00 UTC. Time now 2018-Apr-19 19:23 UTC.
Position N 38°51' W 010°06'.

Length 107 m; draft 8.5 m.

Type: Cargo ship. MMSI: 255805916.

Date/timePositionNaut miles runAvg speedWind from/ knotsBaromVisibWave heightAir tempDewpointWater temp
2018-Apr-19 19:00N 38°51' W 010°06'611.2
2018-Apr-19 18:29N 38°57' W 010°06'510.9
2018-Apr-19 18:00N 39°02' W 010°06'510.8
2018-Apr-19 17:30N 39°08' W 010°06'610.7
2018-Apr-19 16:56N 39°14' W 010°06'511.1
2018-Apr-19 16:29N 39°19' W 010°06'  
2018-Apr-16 10:12N 49°23' W 004°31'211.2
2018-Apr-16 10:00N 49°24' W 004°28'45 8.0
2018-Apr-16 04:20N 49°47' W 003°28'3 7.9
2018-Apr-16 03:56N 49°48' W 003°23'4 8.6
2018-Apr-16 03:30N 49°50' W 003°18'510.2
2018-Apr-16 03:00N 49°53' W 003°12'611.4
2018-Apr-16 02:30N 49°56' W 003°04'612.3
2018-Apr-16 02:00N 49°59' W 002°55'612.8
2018-Apr-16 01:30N 50°01' W 002°46'3512.2
2018-Apr-15 22:41N 50°11' W 001°54'3 9.5
2018-Apr-15 22:19N 50°11' W 001°49'3 8.9
2018-Apr-15 22:00N 50°12' W 001°45'4 8.3
2018-Apr-15 21:30N 50°13' W 001°39'4 7.4
2018-Apr-15 21:00N 50°14' W 001°33'44 9.0
2018-Apr-15 16:03N 50°28' W 000°27'113.1
2018-Apr-15 15:58N 50°28' W 000°25'613.1
2018-Apr-15 15:30N 50°29' W 000°16'713.1
2018-Apr-15 15:00N 50°31' W 000°06'713.1
2018-Apr-15 14:30N 50°33' E 000°04'612.7
2018-Apr-15 14:00N 50°35' E 000°14'612.7
2018-Apr-15 13:30N 50°36' E 000°23'612.2
2018-Apr-15 13:00N 50°38' E 000°32'611.8
2018-Apr-15 12:30N 50°41' E 000°40'611.1
2018-Apr-15 12:00N 50°44' E 000°48'510.5
2018-Apr-15 11:30N 50°47' E 000°54'510.0
2018-Apr-15 10:59N 50°50' E 001°01'8 9.8
2018-Apr-15 10:10N 50°56' E 001°10'2 9.8
2018-Apr-15 09:59N 50°57' E 001°12'610.0
2018-Apr-15 09:25N 51°00' E 001°19'410.9
2018-Apr-15 09:00N 51°03' E 001°25'612.7
2018-Apr-15 08:30N 51°07' E 001°33'713.7
2018-Apr-15 08:00N 51°12' E 001°41'713.8
2018-Apr-15 07:31N 51°17' E 001°48'713.9
2018-Apr-15 07:01N 51°23' E 001°53'713.3
2018-Apr-15 06:30N 51°29' E 001°59'612.7
2018-Apr-15 06:00N 51°34' E 002°06'612.1
2018-Apr-15 05:31N 51°38' E 002°12'611.8
2018-Apr-15 05:00N 51°42' E 002°19'611.2
2018-Apr-15 04:29N 51°47' E 002°25'4110.2
2018-Apr-15 00:29N 52°18' E 003°08'510.5
2018-Apr-15 00:00N 52°22' E 003°13'611.1
2018-Apr-14 23:29N 52°26' E 003°18'611.7
2018-Apr-14 22:59N 52°31' E 003°24'612.1
2018-Apr-14 22:30N 52°36' E 003°30'612.3
2018-Apr-14 21:59N 52°41' E 003°36'612.4
2018-Apr-14 21:29N 52°46' E 003°43'612.5
2018-Apr-14 21:00N 52°50' E 003°49'712.6
2018-Apr-14 20:28N 52°55' E 003°57'612.4
2018-Apr-14 19:59N 52°59' E 004°04'612.2
2018-Apr-14 19:30N 53°03' E 004°11'611.9
2018-Apr-14 19:00N 53°08' E 004°18'611.3
2018-Apr-14 18:29N 53°12' E 004°24'611.0
2018-Apr-14 17:59N 53°17' E 004°28'510.4
2018-Apr-14 17:29N 53°22' E 004°31'510.6
2018-Apr-14 17:00N 53°27' E 004°34'510.4
2018-Apr-14 16:30N 53°32' E 004°36'510.4
2018-Apr-14 15:59N 53°37' E 004°39'510.9
2018-Apr-14 15:29N 53°42' E 004°43'611.2
2018-Apr-14 14:59N 53°47' E 004°46'611.8
2018-Apr-14 14:30N 53°52' E 004°50'611.5
2018-Apr-14 13:59N 53°58' E 004°54'611.6
2018-Apr-14 13:29N 54°03' E 004°58'611.6
2018-Apr-14 12:59N 54°08' E 005°03'611.6
2018-Apr-14 12:30N 54°13' E 005°08'263 9.0
2018-Apr-13 07:05N 57°42' E 009°55'213.3
2018-Apr-13 06:58N 57°42' E 009°58'813.5
2018-Apr-13 06:23N 57°44' E 010°12'514.0
2018-Apr-13 06:00N 57°45' E 010°22'713.8
2018-Apr-13 05:30N 57°47' E 010°34'612.1
2018-Apr-13 05:00N 57°45' E 010°45'4 7.0
2018-Apr-13 04:30N 57°42' E 010°46'4 8.8
2018-Apr-13 04:00N 57°40' E 010°54'611.2
2018-Apr-13 03:31N 57°39' E 011°04'510.8
2018-Apr-13 03:00N 57°35' E 011°12'611.4
2018-Apr-13 02:30N 57°32' E 011°20'611.6
2018-Apr-13 02:01N 57°27' E 011°26'612.1
2018-Apr-13 01:30N 57°21' E 011°30'612.2
2018-Apr-13 01:01N 57°16' E 011°34'612.3
2018-Apr-13 00:30N 57°10' E 011°38'612.5
2018-Apr-13 00:00N 57°04' E 011°42'612.7
2018-Apr-12 23:30N 56°58' E 011°46'612.6
2018-Apr-12 23:00N 56°52' E 011°49'9810.8
2018-Apr-12 13:55N 55°17' E 011°04'512.0
2018-Apr-12 13:31N 55°12' E 011°06'610.9
2018-Apr-12 12:59N 55°08' E 010°60'611.7
2018-Apr-12 12:31N 55°03' E 010°60'510.8
2018-Apr-12 12:01N 54°58' E 010°56'611.4
2018-Apr-12 11:30N 54°53' E 010°51'611.8
2018-Apr-12 11:00N 54°47' E 010°49'611.5
2018-Apr-12 10:30N 54°42' E 010°47'611.4
2018-Apr-12 10:00N 54°38' E 010°54'611.4
2018-Apr-12 09:30N 54°36' E 011°04'611.8
2018-Apr-12 09:01N 54°36' E 011°14'612.5
2018-Apr-12 08:30N 54°33' E 011°23'612.7
2018-Apr-12 08:01N 54°30' E 011°33'612.5
2018-Apr-12 07:30N 54°27' E 011°43'7711.1
2018-Apr-12 00:32N 55°00' E 013°44'211.8
2018-Apr-12 00:21N 55°01' E 013°47'411.7
2018-Apr-12 00:00N 55°02' E 013°54'2211.5
2018-Apr-11 22:02N 55°17' E 014°23'011.7
2018-Apr-11 22:00N 55°18' E 014°23'611.5
2018-Apr-11 21:30N 55°22' E 014°30'611.3
2018-Apr-11 21:00N 55°26' E 014°36'611.4
2018-Apr-11 20:30N 55°29' E 014°45'611.5
2018-Apr-11 20:00N 55°32' E 014°54'611.5
2018-Apr-11 19:30N 55°35' E 015°02'611.5
2018-Apr-11 19:00N 55°38' E 015°11'611.7
2018-Apr-11 18:31N 55°41' E 015°20'611.8
2018-Apr-11 18:00N 55°44' E 015°29'611.9
2018-Apr-11 17:30N 55°47' E 015°38'611.8
2018-Apr-11 17:01N 55°50' E 015°47'611.9
2018-Apr-11 16:30N 55°53' E 015°57'611.8
2018-Apr-11 16:01N 55°56' E 016°06'611.8
2018-Apr-11 15:31N 55°59' E 016°15'611.7
2018-Apr-11 15:00N 56°02' E 016°24'611.7
2018-Apr-11 14:31N 56°05' E 016°33'611.7
2018-Apr-11 14:00N 56°08' E 016°41'611.3
2018-Apr-11 13:31N 56°12' E 016°48'611.4
2018-Apr-11 13:00N 56°18' E 016°51'20011.8
2018-Apr-10 20:01N 59°17' E 019°41'112.1
2018-Apr-10 19:55N 59°18' E 019°42'1512.2
2018-Apr-10 18:43N 59°30' E 019°56'312.1
2018-Apr-10 18:28N 59°33' E 019°57'611.5
2018-Apr-10 17:55N 59°39' E 019°53'512.1
2018-Apr-10 17:28N 59°43' E 019°46'612.1
2018-Apr-10 17:01N 59°48' E 019°39'611.9
2018-Apr-10 16:31N 59°52' E 019°32'611.9
2018-Apr-10 16:01N 59°57' E 019°24'612.1
2018-Apr-10 15:30N 60°01' E 019°16'612.1
2018-Apr-10 15:01N 60°06' E 019°08'612.1
2018-Apr-10 14:30N 60°11' E 019°01'612.4
2018-Apr-10 14:00N 60°17' E 019°00'1412.4
2018-Apr-10 12:55N 60°31' E 018°57'  

Dump ship's entire track history